createdAt,value
2023-04-26T00:01:30.790Z,2.40
2023-04-26T00:03:57.689Z,2.40
2023-04-26T00:06:24.265Z,2.34
2023-04-26T00:08:51.389Z,2.25
2023-04-26T00:11:18.009Z,2.19
2023-04-26T00:13:44.532Z,2.08
2023-04-26T00:16:10.921Z,2.01
2023-04-26T00:18:37.721Z,1.96
2023-04-26T00:21:04.188Z,1.87
2023-04-26T00:23:32.453Z,1.90
2023-04-26T00:25:59.227Z,1.88
2023-04-26T00:28:25.688Z,1.86
2023-04-26T00:30:52.196Z,1.87
2023-04-26T00:33:18.573Z,1.85
2023-04-26T00:35:45.013Z,1.82
2023-04-26T00:38:11.408Z,1.81
2023-04-26T00:40:37.971Z,1.74
2023-04-26T00:43:06.107Z,1.77
2023-04-26T00:45:32.920Z,1.65
2023-04-26T00:48:02.512Z,1.57
2023-04-26T00:50:30.665Z,1.37
2023-04-26T00:53:01.676Z,1.23
2023-04-26T00:55:28.316Z,1.18
2023-04-26T00:57:56.078Z,1.14
2023-04-26T01:00:22.745Z,1.16
2023-04-26T01:02:52.360Z,1.10
2023-04-26T01:05:19.466Z,1.09
2023-04-26T01:07:46.440Z,1.01
2023-04-26T01:10:12.994Z,1.03
2023-04-26T01:12:39.629Z,0.99
2023-04-26T01:15:06.909Z,1.00
2023-04-26T01:17:33.851Z,0.96
2023-04-26T01:20:00.944Z,0.91
2023-04-26T01:22:28.514Z,0.97
2023-04-26T01:24:58.067Z,0.96
2023-04-26T01:27:24.560Z,0.93
2023-04-26T01:29:51.899Z,0.86
2023-04-26T01:32:19.076Z,0.81
2023-04-26T01:34:46.537Z,0.78
2023-04-26T01:37:13.667Z,0.79
2023-04-26T01:39:40.522Z,0.78
2023-04-26T01:42:08.136Z,0.79
2023-04-26T01:44:35.059Z,0.74
2023-04-26T01:47:02.156Z,0.67
2023-04-26T01:49:29.262Z,0.46
2023-04-26T01:51:55.829Z,0.35
2023-04-26T01:54:22.744Z,0.24
2023-04-26T01:56:49.136Z,0.23
2023-04-26T01:59:15.643Z,0.25
2023-04-26T02:01:46.208Z,0.20
2023-04-26T02:04:12.961Z,0.24
2023-04-26T02:06:39.538Z,0.22
2023-04-26T02:09:06.207Z,0.22
2023-04-26T02:11:32.593Z,0.24
2023-04-26T02:13:59.178Z,0.29
2023-04-26T02:16:27.440Z,0.31
2023-04-26T02:18:54.932Z,0.33
2023-04-26T02:21:23.061Z,0.34
2023-04-26T02:23:49.596Z,0.36
2023-04-26T02:26:16.168Z,0.36
2023-04-26T02:28:43.162Z,0.30
2023-04-26T02:31:09.878Z,0.24
2023-04-26T02:33:36.499Z,0.19
2023-04-26T02:36:05.045Z,0.05
2023-04-26T02:38:35.314Z,-0.05
2023-04-26T02:41:03.164Z,-0.07
2023-04-26T02:43:30.403Z,-0.09
2023-04-26T02:45:58.898Z,-0.10
2023-04-26T02:48:25.612Z,-0.10
2023-04-26T02:50:52.887Z,-0.09
2023-04-26T02:53:19.507Z,-0.08
2023-04-26T02:55:47.412Z,-0.09
2023-04-26T02:58:14.012Z,-0.07
2023-04-26T03:00:46.701Z,-0.10
2023-04-26T03:03:13.616Z,-0.12
2023-04-26T03:05:42.029Z,-0.14
2023-04-26T03:08:09.059Z,-0.16
2023-04-26T03:10:35.639Z,-0.23
2023-04-26T03:13:04.231Z,-0.22
2023-04-26T03:15:30.759Z,-0.24
2023-04-26T03:17:58.594Z,-0.28
2023-04-26T03:20:25.670Z,-0.18
2023-04-26T03:22:52.114Z,-0.16
2023-04-26T03:25:18.746Z,-0.13
2023-04-26T03:27:45.365Z,-0.12
2023-04-26T03:30:13.575Z,-0.11
2023-04-26T03:32:40.019Z,-0.12
2023-04-26T03:35:07.278Z,-0.21
2023-04-26T03:37:34.031Z,-0.23
2023-04-26T03:40:00.566Z,-0.29
2023-04-26T03:42:27.047Z,-0.33
2023-04-26T03:44:53.816Z,-0.30
2023-04-26T03:47:20.570Z,-0.28
2023-04-26T03:49:47.286Z,-0.27
2023-04-26T03:52:13.965Z,-0.25
2023-04-26T03:54:40.822Z,-0.25
2023-04-26T03:57:07.438Z,-0.26
2023-04-26T03:59:34.393Z,-0.22
2023-04-26T04:02:01.164Z,-0.29
2023-04-26T04:04:27.738Z,-0.28
2023-04-26T04:06:54.799Z,-0.26
2023-04-26T04:09:21.289Z,-0.34
2023-04-26T04:11:48.034Z,-0.42
2023-04-26T04:14:14.408Z,-0.40
2023-04-26T04:16:41.277Z,-0.46
2023-04-26T04:19:08.033Z,-0.53
2023-04-26T04:21:34.937Z,-0.50
2023-04-26T04:24:01.439Z,-0.48
2023-04-26T04:26:30.947Z,-0.44
2023-04-26T04:28:58.684Z,-0.36
2023-04-26T04:31:25.227Z,-0.28
2023-04-26T04:33:51.892Z,-0.19
2023-04-26T04:36:18.448Z,-0.11
2023-04-26T04:38:45.250Z,-0.05
2023-04-26T04:41:12.224Z,0.02
2023-04-26T04:43:39.182Z,0.03
2023-04-26T04:46:05.916Z,0.10
2023-04-26T04:48:33.508Z,0.20
2023-04-26T04:51:00.066Z,0.20
2023-04-26T04:53:26.933Z,0.24
2023-04-26T04:55:53.546Z,0.46
2023-04-26T04:58:19.984Z,0.86
2023-04-26T05:00:46.772Z,1.32
2023-04-26T05:03:15.645Z,1.48
2023-04-26T05:05:42.382Z,1.86
2023-04-26T05:08:08.956Z,3.72
2023-04-26T05:10:36.111Z,6.03
2023-04-26T05:13:02.518Z,7.94
2023-04-26T05:15:29.744Z,9.51
2023-04-26T05:17:56.274Z,10.61
2023-04-26T05:20:22.835Z,11.05
2023-04-26T05:22:49.217Z,11.63
2023-04-26T05:25:17.072Z,12.01
2023-04-26T05:27:45.873Z,12.53
2023-04-26T05:30:12.863Z,12.08
2023-04-26T05:32:39.865Z,12.82
2023-04-26T05:35:06.664Z,12.23
2023-04-26T05:37:33.263Z,10.78
2023-04-26T05:40:00.471Z,9.48
2023-04-26T05:42:27.046Z,8.07
2023-04-26T05:44:59.433Z,7.12
2023-04-26T05:47:26.315Z,7.06
2023-04-26T05:49:53.433Z,6.90
2023-04-26T05:52:19.857Z,5.96
2023-04-26T05:54:46.401Z,5.27
2023-04-26T05:57:13.011Z,4.73
2023-04-26T05:59:40.166Z,4.61
2023-04-26T06:02:07.043Z,4.31
2023-04-26T06:04:34.192Z,4.10
2023-04-26T06:07:01.351Z,4.03
2023-04-26T06:09:27.899Z,4.09
2023-04-26T06:11:54.368Z,4.24
2023-04-26T06:14:29.829Z,4.29
2023-04-26T06:16:57.642Z,4.39
2023-04-26T06:19:24.120Z,4.37
2023-04-26T06:21:52.145Z,4.28
2023-04-26T06:24:18.591Z,4.22
2023-04-26T06:26:45.089Z,4.15
2023-04-26T06:29:11.718Z,4.27
2023-04-26T06:31:39.297Z,4.39
2023-04-26T06:34:06.418Z,4.25
2023-04-26T06:36:32.977Z,4.22
2023-04-26T06:38:59.681Z,4.27
2023-04-26T06:41:26.057Z,4.40
2023-04-26T06:43:53.066Z,4.59
2023-04-26T06:46:19.809Z,4.74
2023-04-26T06:48:47.429Z,4.85
2023-04-26T06:51:13.878Z,4.93
2023-04-26T06:53:41.461Z,5.02
2023-04-26T06:56:07.948Z,5.00
2023-04-26T06:58:34.650Z,4.96
2023-04-26T07:01:01.249Z,4.97
2023-04-26T07:03:27.903Z,5.14
2023-04-26T07:05:56.440Z,5.29
2023-04-26T07:08:22.853Z,5.40
2023-04-26T07:10:51.678Z,5.44
2023-04-26T07:13:18.107Z,5.71
2023-04-26T07:15:44.726Z,5.77
2023-04-26T07:18:11.351Z,5.87
2023-04-26T07:20:37.943Z,5.64
2023-04-26T07:23:04.439Z,5.82
2023-04-26T07:25:31.022Z,5.83
2023-04-26T07:27:57.614Z,5.90
2023-04-26T07:30:24.212Z,6.05
2023-04-26T07:32:50.893Z,6.41
2023-04-26T07:35:17.704Z,6.32
2023-04-26T07:37:44.777Z,6.38
2023-04-26T07:40:11.946Z,6.65
2023-04-26T07:42:39.493Z,6.85
2023-04-26T07:45:06.868Z,7.01
2023-04-26T07:47:33.368Z,7.20
2023-04-26T07:49:59.923Z,7.49
2023-04-26T07:52:26.356Z,7.46
2023-04-26T07:54:52.755Z,7.57
2023-04-26T07:57:20.363Z,7.42
2023-04-26T07:59:46.789Z,7.30
2023-04-26T08:02:13.607Z,7.22
2023-04-26T08:04:48.275Z,7.36
2023-04-26T08:07:15.424Z,7.49
2023-04-26T08:09:42.347Z,7.31
2023-04-26T08:12:08.959Z,7.18
2023-04-26T08:14:36.146Z,7.33
2023-04-26T08:17:02.591Z,7.06
2023-04-26T08:19:32.615Z,7.01
2023-04-26T08:21:59.304Z,7.21
2023-04-26T08:24:25.869Z,7.22
2023-04-26T08:26:52.276Z,7.39
2023-04-26T08:29:19.346Z,7.45
2023-04-26T08:31:45.970Z,7.62
2023-04-26T08:34:13.799Z,7.77
2023-04-26T08:36:41.796Z,7.77
2023-04-26T08:39:09.680Z,7.79
2023-04-26T08:41:37.996Z,8.12
2023-04-26T08:44:08.772Z,8.36
2023-04-26T08:46:47.473Z,8.56
2023-04-26T08:49:27.149Z,8.43
2023-04-26T08:51:55.041Z,8.51
2023-04-26T08:54:22.337Z,8.45
2023-04-26T08:56:49.250Z,8.34
2023-04-26T08:59:15.952Z,8.13
2023-04-26T09:01:43.941Z,8.06
2023-04-26T09:04:11.782Z,8.12
2023-04-26T09:06:39.776Z,8.06
2023-04-26T09:09:09.298Z,8.11
2023-04-26T09:11:55.267Z,8.24
2023-04-26T09:14:22.357Z,8.43
2023-04-26T09:16:48.795Z,8.57
2023-04-26T09:19:15.557Z,7.99
2023-04-26T09:21:46.992Z,8.13
2023-04-26T09:24:14.088Z,8.21
2023-04-26T09:26:42.103Z,8.25
2023-04-26T09:29:19.045Z,8.44
2023-04-26T09:31:49.839Z,8.42
2023-04-26T09:34:16.923Z,8.59
2023-04-26T09:36:55.649Z,8.50
2023-04-26T09:39:32.846Z,8.88
2023-04-26T09:41:59.689Z,9.11
2023-04-26T09:44:26.336Z,9.04
2023-04-26T09:47:09.468Z,9.03
2023-04-26T09:49:51.690Z,8.75
2023-04-26T09:52:19.249Z,8.33
2023-04-26T09:54:53.454Z,8.05
2023-04-26T09:57:22.158Z,8.01
2023-04-26T09:59:54.805Z,7.86
2023-04-26T10:02:27.557Z,7.75
2023-04-26T10:04:56.525Z,8.19
2023-04-26T10:07:25.861Z,8.44
2023-04-26T10:09:54.150Z,8.23
2023-04-26T10:12:20.771Z,8.29
2023-04-26T10:14:48.468Z,8.58
2023-04-26T10:17:14.977Z,8.76
2023-04-26T10:19:46.595Z,8.88
2023-04-26T10:22:25.758Z,8.76
2023-04-26T10:24:54.075Z,8.49
2023-04-26T10:27:43.430Z,8.45
2023-04-26T10:30:15.835Z,8.51
2023-04-26T10:33:00.852Z,8.43
2023-04-26T10:35:29.251Z,8.80
2023-04-26T10:38:01.613Z,9.18
2023-04-26T10:40:29.192Z,9.27
2023-04-26T10:43:19.543Z,9.33
2023-04-26T10:45:47.765Z,9.63
2023-04-26T10:48:22.763Z,9.86
2023-04-26T10:51:01.669Z,9.43
2023-04-26T10:53:33.388Z,9.08
2023-04-26T10:55:59.843Z,8.77
2023-04-26T10:58:28.122Z,8.44
2023-04-26T11:01:18.964Z,8.48
2023-04-26T11:03:59.319Z,9.03
2023-04-26T11:06:28.921Z,8.87
2023-04-26T11:08:56.123Z,9.61
2023-04-26T11:11:26.366Z,10.00
2023-04-26T11:13:52.810Z,10.29
2023-04-26T11:16:19.644Z,10.63
2023-04-26T11:18:47.599Z,11.10
2023-04-26T11:21:18.218Z,11.38
2023-04-26T11:23:53.816Z,11.42
2023-04-26T11:26:20.283Z,11.96
2023-04-26T11:28:49.145Z,12.59
2023-04-26T11:31:15.995Z,12.79
2023-04-26T11:33:42.456Z,12.63
2023-04-26T11:36:09.450Z,11.89
2023-04-26T11:38:38.231Z,11.20
2023-04-26T11:41:04.741Z,10.59
2023-04-26T11:43:39.012Z,10.62
2023-04-26T11:46:07.776Z,10.47
2023-04-26T11:48:37.086Z,10.56
2023-04-26T11:51:05.028Z,10.96
2023-04-26T11:53:39.610Z,11.69
2023-04-26T11:56:21.886Z,12.08
2023-04-26T11:58:50.621Z,12.33
2023-04-26T12:01:28.331Z,12.01
2023-04-26T12:03:57.352Z,12.65
2023-04-26T12:06:43.349Z,12.33
2023-04-26T12:09:11.254Z,11.97
2023-04-26T12:11:38.588Z,11.95
2023-04-26T12:14:05.902Z,12.12
2023-04-26T12:16:32.707Z,12.24
2023-04-26T12:18:59.211Z,12.28
2023-04-26T12:21:28.863Z,11.42
2023-04-26T12:23:57.012Z,11.13
2023-04-26T12:26:42.819Z,10.34
2023-04-26T12:29:09.365Z,10.68
2023-04-26T12:31:37.362Z,11.53
2023-04-26T12:34:03.863Z,12.23
2023-04-26T12:36:31.592Z,12.67
2023-04-26T12:38:58.064Z,12.88
2023-04-26T12:41:25.128Z,13.33
2023-04-26T12:43:51.570Z,13.81
2023-04-26T12:46:18.114Z,13.81
2023-04-26T12:48:44.728Z,13.76
2023-04-26T12:51:11.115Z,13.60
2023-04-26T12:53:38.120Z,13.32
2023-04-26T12:56:04.834Z,13.43
2023-04-26T12:58:31.878Z,13.29
2023-04-26T13:00:58.269Z,12.86
2023-04-26T13:03:25.100Z,12.65
2023-04-26T13:05:52.519Z,12.71
2023-04-26T13:08:18.977Z,12.23
2023-04-26T13:10:46.014Z,12.52
2023-04-26T13:13:12.954Z,13.02
2023-04-26T13:15:39.842Z,13.06
2023-04-26T13:18:06.422Z,12.67
2023-04-26T13:20:33.005Z,12.49
2023-04-26T13:22:59.442Z,12.52
2023-04-26T13:25:25.994Z,12.44
2023-04-26T13:27:54.623Z,12.17
2023-04-26T13:30:21.249Z,12.66
2023-04-26T13:32:48.473Z,12.69
2023-04-26T13:35:15.175Z,12.53
2023-04-26T13:37:42.295Z,12.43
2023-04-26T13:40:11.158Z,12.31
2023-04-26T13:42:38.360Z,12.35
2023-04-26T13:45:10.251Z,12.43
2023-04-26T13:47:37.146Z,12.97
2023-04-26T13:50:04.512Z,13.63
2023-04-26T13:52:33.098Z,14.00
2023-04-26T13:55:00.238Z,14.38
2023-04-26T13:57:26.747Z,14.08
2023-04-26T13:59:53.112Z,13.37
2023-04-26T14:02:19.826Z,13.23
2023-04-26T14:04:46.505Z,12.93
2023-04-26T14:07:13.229Z,13.04
2023-04-26T14:09:39.632Z,12.84
2023-04-26T14:12:08.560Z,12.66
2023-04-26T14:14:36.062Z,12.70
2023-04-26T14:17:03.773Z,12.92
2023-04-26T14:19:30.482Z,12.91
2023-04-26T14:21:56.987Z,13.22
2023-04-26T14:24:23.809Z,13.16
2023-04-26T14:26:50.200Z,12.83
2023-04-26T14:29:16.644Z,12.36
2023-04-26T14:31:43.075Z,12.25
2023-04-26T14:34:10.165Z,12.15
2023-04-26T14:36:36.754Z,12.21
2023-04-26T14:39:03.551Z,12.22
2023-04-26T14:41:30.062Z,12.18
2023-04-26T14:43:56.637Z,12.25
2023-04-26T14:46:23.100Z,12.20
2023-04-26T14:48:49.537Z,12.19
2023-04-26T14:51:16.133Z,12.27
2023-04-26T14:53:42.556Z,12.33
2023-04-26T14:56:09.428Z,12.36
2023-04-26T14:58:36.335Z,12.44
2023-04-26T15:01:03.394Z,12.57
2023-04-26T15:03:30.114Z,12.56
2023-04-26T15:05:56.954Z,12.57
2023-04-26T15:08:23.333Z,12.39
2023-04-26T15:10:51.166Z,12.33
2023-04-26T15:13:17.913Z,12.00
2023-04-26T15:15:44.803Z,12.33
2023-04-26T15:18:11.551Z,12.40
2023-04-26T15:20:41.446Z,12.15
2023-04-26T15:23:08.291Z,12.06
2023-04-26T15:25:36.464Z,12.27
2023-04-26T15:28:03.441Z,12.06
2023-04-26T15:30:30.611Z,12.07
2023-04-26T15:32:58.066Z,11.79
2023-04-26T15:35:24.936Z,11.67
2023-04-26T15:37:54.259Z,11.51
2023-04-26T15:40:24.553Z,11.64
2023-04-26T15:42:52.345Z,12.08
2023-04-26T15:45:19.395Z,12.44
2023-04-26T15:47:46.371Z,13.11
2023-04-26T15:50:13.449Z,13.34
2023-04-26T15:52:40.780Z,13.64
2023-04-26T15:55:07.957Z,13.36
2023-04-26T15:57:34.985Z,12.72
2023-04-26T16:00:01.959Z,12.21
2023-04-26T16:02:28.904Z,11.76
2023-04-26T16:04:56.218Z,12.13
2023-04-26T16:07:23.162Z,11.90
2023-04-26T16:09:49.601Z,11.73
2023-04-26T16:12:16.236Z,11.66
2023-04-26T16:14:42.658Z,11.74
2023-04-26T16:17:09.184Z,11.67
2023-04-26T16:19:35.648Z,11.62
2023-04-26T16:22:02.082Z,11.21
2023-04-26T16:24:29.686Z,10.84
2023-04-26T16:26:56.413Z,10.72
2023-04-26T16:29:22.976Z,10.72
2023-04-26T16:31:49.964Z,10.54
2023-04-26T16:34:16.825Z,10.66
2023-04-26T16:36:43.415Z,10.71
2023-04-26T16:39:12.582Z,10.93
2023-04-26T16:41:40.816Z,11.21
2023-04-26T16:44:07.728Z,11.37
2023-04-26T16:46:34.267Z,11.54
2023-04-26T16:49:00.845Z,11.56
2023-04-26T16:51:27.718Z,11.44
2023-04-26T16:53:54.229Z,11.57
2023-04-26T16:56:20.806Z,11.61
2023-04-26T16:58:47.638Z,11.50
2023-04-26T17:01:14.061Z,11.47
2023-04-26T17:03:41.670Z,11.32
2023-04-26T17:06:11.163Z,11.38
2023-04-26T17:08:37.710Z,11.50
2023-04-26T17:11:04.373Z,11.52
2023-04-26T17:13:33.200Z,11.21
2023-04-26T17:15:59.734Z,11.02
2023-04-26T17:18:26.637Z,10.94
2023-04-26T17:20:56.557Z,10.82
2023-04-26T17:23:23.212Z,10.80
2023-04-26T17:25:49.657Z,10.89
2023-04-26T17:28:16.599Z,10.64
2023-04-26T17:30:43.470Z,10.58
2023-04-26T17:33:10.098Z,10.62
2023-04-26T17:35:36.513Z,10.45
2023-04-26T17:38:03.050Z,10.38
2023-04-26T17:40:30.030Z,10.40
2023-04-26T17:42:56.414Z,10.31
2023-04-26T17:45:23.413Z,10.14
2023-04-26T17:47:49.884Z,10.06
2023-04-26T17:50:18.059Z,9.91
2023-04-26T17:52:44.427Z,9.72
2023-04-26T17:55:11.214Z,9.62
2023-04-26T17:57:37.710Z,9.60
2023-04-26T18:00:06.694Z,9.57
2023-04-26T18:02:33.483Z,9.41
2023-04-26T18:05:00.792Z,9.38
2023-04-26T18:07:27.198Z,9.35
2023-04-26T18:09:53.759Z,9.27
2023-04-26T18:12:20.168Z,9.20
2023-04-26T18:14:46.805Z,9.30
2023-04-26T18:17:14.954Z,9.12
2023-04-26T18:19:41.958Z,8.99
2023-04-26T18:22:08.727Z,8.91
2023-04-26T18:24:35.567Z,8.87
2023-04-26T18:27:02.660Z,8.76
2023-04-26T18:29:29.761Z,8.68
2023-04-26T18:31:56.706Z,8.61
2023-04-26T18:34:23.704Z,8.55
2023-04-26T18:36:50.497Z,8.44
2023-04-26T18:39:17.028Z,8.36
2023-04-26T18:41:43.728Z,8.20
2023-04-26T18:44:16.142Z,8.04
2023-04-26T18:46:43.383Z,7.87
2023-04-26T18:49:10.669Z,7.85
2023-04-26T18:51:37.141Z,7.70
2023-04-26T18:54:04.529Z,7.61
2023-04-26T18:56:31.522Z,7.57
2023-04-26T18:58:58.277Z,7.46
2023-04-26T19:01:25.083Z,7.42
2023-04-26T19:03:51.788Z,7.38
2023-04-26T19:06:18.349Z,7.29
2023-04-26T19:08:45.213Z,7.17
2023-04-26T19:11:12.381Z,7.11
2023-04-26T19:13:40.303Z,7.06
2023-04-26T19:16:08.206Z,6.97
2023-04-26T19:18:40.341Z,6.88
2023-04-26T19:21:08.171Z,6.89
2023-04-26T19:23:35.151Z,6.80
2023-04-26T19:26:03.818Z,6.82
2023-04-26T19:28:31.329Z,6.73
2023-04-26T19:30:58.309Z,6.60
2023-04-26T19:33:26.430Z,6.63
2023-04-26T19:35:53.344Z,6.57
2023-04-26T19:38:19.888Z,6.55
2023-04-26T19:40:46.276Z,6.54
2023-04-26T19:43:12.898Z,6.53
2023-04-26T19:45:40.842Z,6.48
2023-04-26T19:48:17.019Z,6.45
2023-04-26T19:50:45.735Z,6.34
2023-04-26T19:53:14.562Z,6.28
2023-04-26T19:55:42.326Z,6.28
2023-04-26T19:58:12.888Z,6.27
2023-04-26T20:00:40.255Z,6.29
2023-04-26T20:03:07.123Z,6.25
2023-04-26T20:05:34.131Z,6.25
2023-04-26T20:08:01.386Z,6.17
2023-04-26T20:10:32.470Z,6.13
2023-04-26T20:13:00.204Z,6.11
2023-04-26T20:15:27.830Z,6.07
2023-04-26T20:17:54.450Z,6.00
2023-04-26T20:20:21.582Z,5.84
2023-04-26T20:22:48.040Z,5.90
2023-04-26T20:25:14.542Z,5.88
2023-04-26T20:27:41.177Z,5.84
2023-04-26T20:30:08.383Z,5.87
2023-04-26T20:32:35.376Z,5.88
2023-04-26T20:35:05.105Z,5.87
2023-04-26T20:37:31.936Z,5.89
2023-04-26T20:39:58.384Z,5.93
2023-04-26T20:42:25.390Z,5.86
2023-04-26T20:44:52.191Z,5.87
2023-04-26T20:47:19.110Z,5.79
2023-04-26T20:49:45.573Z,5.64
2023-04-26T20:52:13.168Z,5.48
2023-04-26T20:54:39.657Z,5.43
2023-04-26T20:57:06.631Z,5.42
2023-04-26T20:59:33.133Z,5.46
2023-04-26T21:01:59.830Z,5.44
2023-04-26T21:04:26.405Z,5.41
2023-04-26T21:06:53.329Z,5.39
2023-04-26T21:09:20.078Z,5.32
2023-04-26T21:11:46.505Z,5.24
2023-04-26T21:14:13.690Z,5.24
2023-04-26T21:16:40.503Z,5.30
2023-04-26T21:19:08.375Z,5.21
2023-04-26T21:21:35.414Z,5.15
2023-04-26T21:24:03.205Z,5.13
2023-04-26T21:26:30.511Z,5.15
2023-04-26T21:28:57.143Z,5.19
2023-04-26T21:31:23.941Z,5.26
2023-04-26T21:33:50.737Z,5.26
2023-04-26T21:36:17.601Z,5.34
2023-04-26T21:38:44.189Z,5.37
2023-04-26T21:41:10.877Z,5.40
2023-04-26T21:43:37.321Z,5.44
2023-04-26T21:46:04.078Z,5.51
2023-04-26T21:48:31.020Z,5.51
2023-04-26T21:50:57.517Z,5.47
2023-04-26T21:53:24.205Z,5.41
2023-04-26T21:55:54.042Z,5.42
2023-04-26T21:58:21.544Z,5.43
2023-04-26T22:00:49.080Z,5.31
2023-04-26T22:03:16.286Z,5.28
2023-04-26T22:05:43.152Z,5.26
2023-04-26T22:08:09.984Z,5.32
2023-04-26T22:10:36.719Z,5.36
2023-04-26T22:13:03.444Z,5.40
2023-04-26T22:15:30.101Z,5.42
2023-04-26T22:17:56.675Z,5.45
2023-04-26T22:20:23.379Z,5.47
2023-04-26T22:22:49.858Z,5.43
2023-04-26T22:25:16.639Z,5.42
2023-04-26T22:27:43.470Z,5.39
2023-04-26T22:30:24.122Z,5.38
2023-04-26T22:32:55.040Z,5.33
2023-04-26T22:35:22.193Z,5.24
2023-04-26T22:37:49.996Z,5.27
2023-04-26T22:40:16.708Z,5.25
2023-04-26T22:42:43.632Z,5.25
2023-04-26T22:45:11.696Z,5.18
2023-04-26T22:47:38.907Z,5.18
2023-04-26T22:50:07.816Z,5.20
2023-04-26T22:52:35.034Z,5.18
2023-04-26T22:55:01.892Z,5.21
2023-04-26T22:57:29.354Z,5.23
2023-04-26T22:59:56.333Z,5.16
2023-04-26T23:02:23.767Z,5.13
2023-04-26T23:04:50.485Z,5.08
2023-04-26T23:07:17.035Z,5.06
2023-04-26T23:09:43.751Z,5.11
2023-04-26T23:12:10.556Z,5.12
2023-04-26T23:14:37.644Z,5.11
2023-04-26T23:17:04.613Z,5.10
2023-04-26T23:19:31.442Z,5.06
2023-04-26T23:21:57.850Z,5.01
2023-04-26T23:24:24.490Z,4.88
2023-04-26T23:26:51.228Z,4.77
2023-04-26T23:29:17.850Z,4.68
2023-04-26T23:31:44.862Z,4.62
2023-04-26T23:34:11.278Z,4.59
2023-04-26T23:36:38.213Z,4.54
2023-04-26T23:39:04.709Z,4.51
2023-04-26T23:41:31.285Z,4.48
2023-04-26T23:43:57.747Z,4.44
2023-04-26T23:46:24.250Z,4.43
2023-04-26T23:48:51.330Z,4.43
2023-04-26T23:51:18.254Z,4.43
2023-04-26T23:53:44.949Z,4.40
2023-04-26T23:56:12.068Z,4.42
2023-04-26T23:58:38.622Z,4.40
